Ana Sayfa
METAR-TAF:

METAR-TAF

Havaalanları :

Hartness State Airport

Springfield, Vermont, Amerika Birleşik Devletleri

Enlem: 43-20-33N, Boylam: 072-31-18W, yükseklik: 175 m

Güncel hava durumu gözlemi

Rapor saat 02:54 UTC de 19 dakika önce yapıldı.
Sakin rüzgar
Sıcaklık 3°C
Nem 65%
Basınç 1006 hPa
Görüş mesafesi: 16.1 km
2700 ft yükseklikte parçalı çok bulutlu
3200 ft yükseklikte çok bulutlu

METAR: KVSF 190254Z AUTO 00000KT 10SM BKN027 OVC032 03/M03 A2972 RMK AO2 SLP069 T00281028 55008

Saat: 22:13 (03:13 UTC)


TAF: eksik

4.000'den fazla havaalanı için hava durumu gözlemleri ve tahminleri (METAR ve TAF raporları).

Kullanılabilir istasyonlar harita üzerinde sarı ve kırmızı noktalarla gösterilir.

İstasyonun adını görmek için fareyi noktanın üzerinde gezdirin.

Sonrasında hava gözlem ve tahminlerini görmek için tıklayın.

Haritayı değiştirmek için: yaklaştırmak için siyah artı işaretli yeşil düğmeye ve uzaklaştırmak için de eksi işaretli düğmeye hızla tıklayın; bitişik haritalar için yeşil okları kullanın.


METAR-TAF: